sensor_id;sensor_type;location;lat;lon;timestamp;pressure;altitude;pressure_sealevel;temperature;humidity
74242;BME280;62599;49.146;10.426;2023-07-20T00:01:08;95561.38;;;16.51;89.41
74242;BME280;62599;49.146;10.426;2023-07-20T00:03:34;95568.09;;;16.60;88.50
74242;BME280;62599;49.146;10.426;2023-07-20T00:05:59;95571.28;;;16.70;88.29
74242;BME280;62599;49.146;10.426;2023-07-20T00:08:25;95544.13;;;16.73;87.56
74242;BME280;62599;49.146;10.426;2023-07-20T00:10:50;95558.97;;;16.76;87.46
74242;BME280;62599;49.146;10.426;2023-07-20T00:13:15;95561.72;;;16.79;86.90
74242;BME280;62599;49.146;10.426;2023-07-20T00:15:43;95556.22;;;16.76;86.84
74242;BME280;62599;49.146;10.426;2023-07-20T00:18:09;95550.38;;;16.74;86.99
74242;BME280;62599;49.146;10.426;2023-07-20T00:20:34;95558.19;;;16.75;86.72
74242;BME280;62599;49.146;10.426;2023-07-20T00:22:59;95554.31;;;16.80;86.68
74242;BME280;62599;49.146;10.426;2023-07-20T00:25:25;95543.91;;;16.86;86.41
74242;BME280;62599;49.146;10.426;2023-07-20T00:27:50;95550.53;;;16.92;85.53
74242;BME280;62599;49.146;10.426;2023-07-20T00:30:16;95556.44;;;16.97;85.18
74242;BME280;62599;49.146;10.426;2023-07-20T00:32:42;95547.53;;;17.00;84.54
74242;BME280;62599;49.146;10.426;2023-07-20T00:35:07;95560.41;;;17.07;83.36
74242;BME280;62599;49.146;10.426;2023-07-20T00:37:33;95560.44;;;17.11;81.83
74242;BME280;62599;49.146;10.426;2023-07-20T00:39:58;95553.84;;;17.15;81.06
74242;BME280;62599;49.146;10.426;2023-07-20T00:42:24;95559.66;;;17.14;79.34
74242;BME280;62599;49.146;10.426;2023-07-20T00:44:49;95567.09;;;17.17;79.29
74242;BME280;62599;49.146;10.426;2023-07-20T00:47:14;95560.50;;;17.18;78.24
74242;BME280;62599;49.146;10.426;2023-07-20T00:49:40;95559.34;;;17.19;77.84
74242;BME280;62599;49.146;10.426;2023-07-20T00:52:07;95556.19;;;17.17;77.25
74242;BME280;62599;49.146;10.426;2023-07-20T00:54:33;95561.59;;;17.13;77.10
74242;BME280;62599;49.146;10.426;2023-07-20T00:57:00;95557.69;;;17.07;77.18
74242;BME280;62599;49.146;10.426;2023-07-20T00:59:26;95566.16;;;16.98;77.23
74242;BME280;62599;49.146;10.426;2023-07-20T01:01:52;95568.03;;;16.91;77.09
74242;BME280;62599;49.146;10.426;2023-07-20T01:04:18;95574.19;;;16.84;77.30
74242;BME280;62599;49.146;10.426;2023-07-20T01:07:13;95568.66;;;16.77;77.51
74242;BME280;62599;49.146;10.426;2023-07-20T01:09:44;95563.56;;;16.72;76.51
74242;BME280;62599;49.146;10.426;2023-07-20T01:12:21;95562.75;;;16.68;76.34
74242;BME280;62599;49.146;10.426;2023-07-20T01:14:48;95565.84;;;16.70;75.15
74242;BME280;62599;49.146;10.426;2023-07-20T01:17:14;95566.19;;;16.65;74.78
74242;BME280;62599;49.146;10.426;2023-07-20T01:19:39;95563.78;;;16.56;75.16
74242;BME280;62599;49.146;10.426;2023-07-20T01:30:56;95562.09;;;16.10;76.27
74242;BME280;62599;49.146;10.426;2023-07-20T01:33:25;95562.78;;;16.04;77.34
74242;BME280;62599;49.146;10.426;2023-07-20T01:35:58;95564.66;;;15.96;77.45
74242;BME280;62599;49.146;10.426;2023-07-20T01:38:25;95561.84;;;15.89;77.46
74242;BME280;62599;49.146;10.426;2023-07-20T01:40:51;95560.19;;;15.81;77.69
74242;BME280;62599;49.146;10.426;2023-07-20T01:43:17;95565.53;;;15.74;78.24
74242;BME280;62599;49.146;10.426;2023-07-20T01:45:43;95569.69;;;15.68;78.43
74242;BME280;62599;49.146;10.426;2023-07-20T01:48:08;95569.22;;;15.62;78.71
74242;BME280;62599;49.146;10.426;2023-07-20T01:50:34;95572.59;;;15.55;79.14
74242;BME280;62599;49.146;10.426;2023-07-20T01:53:00;95570.63;;;15.52;79.35
74242;BME280;62599;49.146;10.426;2023-07-20T01:55:26;95575.22;;;15.48;79.34
74242;BME280;62599;49.146;10.426;2023-07-20T01:57:51;95576.66;;;15.42;79.32
74242;BME280;62599;49.146;10.426;2023-07-20T02:00:17;95568.84;;;15.37;79.75
74242;BME280;62599;49.146;10.426;2023-07-20T02:02:44;95570.28;;;15.31;79.97
74242;BME280;62599;49.146;10.426;2023-07-20T02:05:09;95576.03;;;15.26;79.64
74242;BME280;62599;49.146;10.426;2023-07-20T02:07:35;95577.16;;;15.25;79.54
74242;BME280;62599;49.146;10.426;2023-07-20T02:10:00;95589.63;;;15.26;79.73
74242;BME280;62599;49.146;10.426;2023-07-20T02:12:25;95583.81;;;15.27;79.19
74242;BME280;62599;49.146;10.426;2023-07-20T02:14:51;95587.41;;;15.35;78.88
74242;BME280;62599;49.146;10.426;2023-07-20T02:17:17;95592.53;;;15.40;78.73
74242;BME280;62599;49.146;10.426;2023-07-20T02:19:42;95596.09;;;15.44;78.66
74242;BME280;62599;49.146;10.426;2023-07-20T02:22:07;95597.72;;;15.49;78.75
74242;BME280;62599;49.146;10.426;2023-07-20T02:24:33;95600.03;;;15.50;79.00
74242;BME280;62599;49.146;10.426;2023-07-20T02:26:59;95598.13;;;15.51;78.23
74242;BME280;62599;49.146;10.426;2023-07-20T02:29:24;95604.34;;;15.51;78.64
74242;BME280;62599;49.146;10.426;2023-07-20T02:31:49;95603.91;;;15.49;78.23
74242;BME280;62599;49.146;10.426;2023-07-20T02:34:15;95603.13;;;15.49;78.06
74242;BME280;62599;49.146;10.426;2023-07-20T02:36:41;95603.91;;;15.49;77.38
74242;BME280;62599;49.146;10.426;2023-07-20T02:39:08;95598.50;;;15.49;76.82
74242;BME280;62599;49.146;10.426;2023-07-20T02:41:33;95605.91;;;15.52;77.60
74242;BME280;62599;49.146;10.426;2023-07-20T02:43:59;95602.09;;;15.57;77.08
74242;BME280;62599;49.146;10.426;2023-07-20T02:46:25;95600.22;;;15.61;77.05
74242;BME280;62599;49.146;10.426;2023-07-20T02:48:50;95601.41;;;15.63;76.55
74242;BME280;62599;49.146;10.426;2023-07-20T02:51:16;95610.34;;;15.64;76.50
74242;BME280;62599;49.146;10.426;2023-07-20T02:53:41;95604.13;;;15.63;75.99
74242;BME280;62599;49.146;10.426;2023-07-20T02:56:07;95614.22;;;15.63;75.88
74242;BME280;62599;49.146;10.426;2023-07-20T02:58:34;95619.66;;;15.63;75.93
74242;BME280;62599;49.146;10.426;2023-07-20T03:01:02;95606.06;;;15.63;76.01
74242;BME280;62599;49.146;10.426;2023-07-20T03:03:27;95611.94;;;15.65;76.08
74242;BME280;62599;49.146;10.426;2023-07-20T03:05:53;95618.94;;;15.66;76.03
74242;BME280;62599;49.146;10.426;2023-07-20T03:08:20;95619.00;;;15.70;76.09
74242;BME280;62599;49.146;10.426;2023-07-20T03:10:45;95616.69;;;15.72;75.74
74242;BME280;62599;49.146;10.426;2023-07-20T03:13:10;95622.94;;;15.76;75.49
74242;BME280;62599;49.146;10.426;2023-07-20T03:15:36;95609.81;;;15.78;74.75
74242;BME280;62599;49.146;10.426;2023-07-20T03:18:01;95618.69;;;15.75;75.04
74242;BME280;62599;49.146;10.426;2023-07-20T03:20:28;95614.34;;;15.70;74.59
74242;BME280;62599;49.146;10.426;2023-07-20T03:22:53;95627.41;;;15.64;74.44
74242;BME280;62599;49.146;10.426;2023-07-20T03:25:19;95627.31;;;15.57;74.88
74242;BME280;62599;49.146;10.426;2023-07-20T03:27:44;95627.94;;;15.47;75.02
74242;BME280;62599;49.146;10.426;2023-07-20T03:30:10;95627.47;;;15.41;75.36
74242;BME280;62599;49.146;10.426;2023-07-20T03:32:36;95624.69;;;15.38;75.22
74242;BME280;62599;49.146;10.426;2023-07-20T03:35:02;95633.22;;;15.36;76.11
74242;BME280;62599;49.146;10.426;2023-07-20T03:37:27;95632.00;;;15.34;76.36
74242;BME280;62599;49.146;10.426;2023-07-20T03:39:53;95631.56;;;15.32;76.56
74242;BME280;62599;49.146;10.426;2023-07-20T03:42:18;95629.59;;;15.29;75.77
74242;BME280;62599;49.146;10.426;2023-07-20T03:44:43;95632.97;;;15.22;76.11
74242;BME280;62599;49.146;10.426;2023-07-20T03:47:09;95632.06;;;15.14;76.47
74242;BME280;62599;49.146;10.426;2023-07-20T03:49:34;95635.78;;;15.06;76.89
74242;BME280;62599;49.146;10.426;2023-07-20T03:52:01;95636.09;;;15.01;77.53
74242;BME280;62599;49.146;10.426;2023-07-20T03:54:28;95644.22;;;15.01;77.93
74242;BME280;62599;49.146;10.426;2023-07-20T03:56:54;95641.97;;;15.03;77.65
74242;BME280;62599;49.146;10.426;2023-07-20T03:59:20;95649.34;;;15.06;77.66
74242;BME280;62599;49.146;10.426;2023-07-20T04:01:45;95646.69;;;15.10;77.89
74242;BME280;62599;49.146;10.426;2023-07-20T04:04:11;95653.78;;;15.14;77.75
74242;BME280;62599;49.146;10.426;2023-07-20T04:06:36;95649.19;;;15.19;77.20
74242;BME280;62599;49.146;10.426;2023-07-20T04:09:03;95648.81;;;15.20;77.28
74242;BME280;62599;49.146;10.426;2023-07-20T04:11:28;95654.97;;;15.17;76.95
74242;BME280;62599;49.146;10.426;2023-07-20T04:13:53;95652.91;;;15.10;77.09
74242;BME280;62599;49.146;10.426;2023-07-20T04:16:19;95662.91;;;15.06;77.56
74242;BME280;62599;49.146;10.426;2023-07-20T04:18:45;95661.66;;;15.00;77.68
74242;BME280;62599;49.146;10.426;2023-07-20T04:21:10;95665.88;;;14.98;77.97
74242;BME280;62599;49.146;10.426;2023-07-20T04:23:36;95670.44;;;14.93;77.83
74242;BME280;62599;49.146;10.426;2023-07-20T04:26:02;95661.81;;;14.88;77.95
74242;BME280;62599;49.146;10.426;2023-07-20T04:28:27;95664.81;;;14.83;78.27
74242;BME280;62599;49.146;10.426;2023-07-20T04:30:53;95662.53;;;14.85;79.26
74242;BME280;62599;49.146;10.426;2023-07-20T04:33:19;95663.09;;;14.94;78.58
74242;BME280;62599;49.146;10.426;2023-07-20T04:35:52;95661.34;;;15.05;78.69
74242;BME280;62599;49.146;10.426;2023-07-20T04:38:18;95666.19;;;15.15;78.01
74242;BME280;62599;49.146;10.426;2023-07-20T04:40:48;95661.34;;;15.28;77.73
74242;BME280;62599;49.146;10.426;2023-07-20T04:43:14;95658.75;;;15.35;77.20
74242;BME280;62599;49.146;10.426;2023-07-20T04:45:40;95664.56;;;15.34;76.71
74242;BME280;62599;49.146;10.426;2023-07-20T04:48:09;95664.44;;;15.27;76.80
74242;BME280;62599;49.146;10.426;2023-07-20T04:50:35;95667.47;;;15.22;77.29
74242;BME280;62599;49.146;10.426;2023-07-20T04:53:01;95666.66;;;15.21;77.74
74242;BME280;62599;49.146;10.426;2023-07-20T04:55:27;95674.03;;;15.21;77.54
74242;BME280;62599;49.146;10.426;2023-07-20T04:58:03;95669.03;;;15.23;77.57
74242;BME280;62599;49.146;10.426;2023-07-20T05:00:29;95678.00;;;15.27;77.74
74242;BME280;62599;49.146;10.426;2023-07-20T05:02:55;95667.59;;;15.29;77.70
74242;BME280;62599;49.146;10.426;2023-07-20T05:05:21;95672.28;;;15.32;77.29
74242;BME280;62599;49.146;10.426;2023-07-20T05:07:46;95677.41;;;15.37;77.11
74242;BME280;62599;49.146;10.426;2023-07-20T05:10:11;95682.47;;;15.38;77.26
74242;BME280;62599;49.146;10.426;2023-07-20T05:12:37;95671.25;;;15.40;76.75
74242;BME280;62599;49.146;10.426;2023-07-20T05:15:03;95670.47;;;15.39;76.94
74242;BME280;62599;49.146;10.426;2023-07-20T05:17:29;95674.88;;;15.48;76.38
74242;BME280;62599;49.146;10.426;2023-07-20T05:19:55;95666.78;;;15.51;76.49
74242;BME280;62599;49.146;10.426;2023-07-20T05:22:20;95675.34;;;15.53;76.48
74242;BME280;62599;49.146;10.426;2023-07-20T05:24:45;95673.06;;;15.55;76.55
74242;BME280;62599;49.146;10.426;2023-07-20T05:27:11;95671.56;;;15.58;76.83
74242;BME280;62599;49.146;10.426;2023-07-20T05:29:36;95670.88;;;15.64;76.61
74242;BME280;62599;49.146;10.426;2023-07-20T05:32:01;95672.16;;;15.71;76.27
74242;BME280;62599;49.146;10.426;2023-07-20T05:34:28;95671.50;;;15.77;75.84
74242;BME280;62599;49.146;10.426;2023-07-20T05:36:53;95671.94;;;15.83;75.56
74242;BME280;62599;49.146;10.426;2023-07-20T05:39:19;95673.59;;;15.87;74.86
74242;BME280;62599;49.146;10.426;2023-07-20T05:41:44;95676.75;;;15.93;75.29
74242;BME280;62599;49.146;10.426;2023-07-20T05:44:09;95678.06;;;16.03;74.86
74242;BME280;62599;49.146;10.426;2023-07-20T05:46:35;95669.97;;;16.06;74.74
74242;BME280;62599;49.146;10.426;2023-07-20T05:49:00;95674.06;;;16.20;74.28
74242;BME280;62599;49.146;10.426;2023-07-20T05:51:27;95673.28;;;16.23;74.41
74242;BME280;62599;49.146;10.426;2023-07-20T05:53:52;95676.09;;;16.30;74.38
74242;BME280;62599;49.146;10.426;2023-07-20T05:56:18;95687.50;;;16.39;73.81
74242;BME280;62599;49.146;10.426;2023-07-20T05:58:43;95681.41;;;16.49;72.49
74242;BME280;62599;49.146;10.426;2023-07-20T06:01:08;95687.25;;;16.51;72.24
74242;BME280;62599;49.146;10.426;2023-07-20T06:03:34;95683.06;;;16.57;72.77
74242;BME280;62599;49.146;10.426;2023-07-20T06:06:00;95680.06;;;16.66;72.24
74242;BME280;62599;49.146;10.426;2023-07-20T06:08:28;95684.03;;;16.72;71.78
74242;BME280;62599;49.146;10.426;2023-07-20T06:10:54;95682.63;;;16.82;71.13
74242;BME280;62599;49.146;10.426;2023-07-20T06:13:19;95684.22;;;16.87;71.37
74242;BME280;62599;49.146;10.426;2023-07-20T06:15:44;95685.06;;;16.94;71.36
74242;BME280;62599;49.146;10.426;2023-07-20T06:18:10;95681.25;;;17.02;70.96
74242;BME280;62599;49.146;10.426;2023-07-20T06:20:35;95688.38;;;17.11;70.39
74242;BME280;62599;49.146;10.426;2023-07-20T06:23:00;95690.00;;;17.19;69.98
74242;BME280;62599;49.146;10.426;2023-07-20T06:25:26;95687.34;;;17.26;69.04
74242;BME280;62599;49.146;10.426;2023-07-20T06:27:51;95685.03;;;17.28;69.41
74242;BME280;62599;49.146;10.426;2023-07-20T06:30:17;95678.44;;;17.29;69.10
74242;BME280;62599;49.146;10.426;2023-07-20T06:32:43;95685.53;;;17.41;68.14
74242;BME280;62599;49.146;10.426;2023-07-20T06:35:08;95682.44;;;17.42;67.66
74242;BME280;62599;49.146;10.426;2023-07-20T06:37:34;95683.97;;;17.40;68.36
74242;BME280;62599;49.146;10.426;2023-07-20T06:40:01;95679.34;;;17.44;68.08
74242;BME280;62599;49.146;10.426;2023-07-20T06:42:26;95677.44;;;17.48;67.92
74242;BME280;62599;49.146;10.426;2023-07-20T06:44:52;95685.25;;;17.53;67.93
74242;BME280;62599;49.146;10.426;2023-07-20T06:47:17;95671.31;;;17.62;67.50
74242;BME280;62599;49.146;10.426;2023-07-20T06:49:42;95675.69;;;17.73;66.44
74242;BME280;62599;49.146;10.426;2023-07-20T06:52:08;95676.53;;;17.77;65.84
74242;BME280;62599;49.146;10.426;2023-07-20T06:54:33;95680.47;;;17.84;65.72
74242;BME280;62599;49.146;10.426;2023-07-20T06:56:58;95670.66;;;17.75;65.91
74242;BME280;62599;49.146;10.426;2023-07-20T06:59:24;95670.31;;;17.80;66.71
74242;BME280;62599;49.146;10.426;2023-07-20T07:01:50;95673.09;;;17.88;65.71
74242;BME280;62599;49.146;10.426;2023-07-20T07:04:15;95680.59;;;17.98;66.02
74242;BME280;62599;49.146;10.426;2023-07-20T07:06:41;95678.69;;;18.09;64.98
74242;BME280;62599;49.146;10.426;2023-07-20T07:09:06;95682.25;;;18.17;64.57
74242;BME280;62599;49.146;10.426;2023-07-20T07:11:33;95685.78;;;18.21;64.73
74242;BME280;62599;49.146;10.426;2023-07-20T07:13:58;95679.16;;;18.25;64.05
74242;BME280;62599;49.146;10.426;2023-07-20T07:16:24;95691.69;;;18.30;64.02
74242;BME280;62599;49.146;10.426;2023-07-20T07:18:50;95680.78;;;18.37;63.49
74242;BME280;62599;49.146;10.426;2023-07-20T07:21:16;95675.31;;;18.30;62.91
74242;BME280;62599;49.146;10.426;2023-07-20T07:23:41;95672.22;;;18.35;63.88
74242;BME280;62599;49.146;10.426;2023-07-20T07:26:06;95680.88;;;18.51;63.87
74242;BME280;62599;49.146;10.426;2023-07-20T07:28:32;95685.22;;;18.60;62.54
74242;BME280;62599;49.146;10.426;2023-07-20T07:30:57;95681.75;;;18.73;62.42
74242;BME280;62599;49.146;10.426;2023-07-20T07:33:23;95687.31;;;18.98;62.12
74242;BME280;62599;49.146;10.426;2023-07-20T07:35:49;95686.22;;;19.21;60.42
74242;BME280;62599;49.146;10.426;2023-07-20T07:38:15;95675.69;;;19.34;60.26
74242;BME280;62599;49.146;10.426;2023-07-20T07:40:40;95675.69;;;19.41;59.15
74242;BME280;62599;49.146;10.426;2023-07-20T07:43:07;95679.59;;;19.29;59.53
74242;BME280;62599;49.146;10.426;2023-07-20T07:45:34;95672.56;;;19.32;58.51
74242;BME280;62599;49.146;10.426;2023-07-20T07:48:01;95680.75;;;19.46;59.20
74242;BME280;62599;49.146;10.426;2023-07-20T07:50:27;95683.91;;;19.55;58.03
74242;BME280;62599;49.146;10.426;2023-07-20T07:52:53;95684.31;;;19.50;57.34
74242;BME280;62599;49.146;10.426;2023-07-20T07:55:19;95684.72;;;19.63;57.83
74242;BME280;62599;49.146;10.426;2023-07-20T07:57:44;95684.31;;;19.82;55.56
74242;BME280;62599;49.146;10.426;2023-07-20T08:00:10;95684.31;;;19.82;56.28
74242;BME280;62599;49.146;10.426;2023-07-20T08:02:40;95690.19;;;19.66;54.20
74242;BME280;62599;49.146;10.426;2023-07-20T08:05:06;95682.72;;;19.53;55.22
74242;BME280;62599;49.146;10.426;2023-07-20T08:07:32;95684.69;;;19.52;55.63
74242;BME280;62599;49.146;10.426;2023-07-20T08:09:57;95683.53;;;19.75;54.58
74242;BME280;62599;49.146;10.426;2023-07-20T08:12:23;95698.38;;;19.91;54.58
74242;BME280;62599;49.146;10.426;2023-07-20T08:14:48;95682.75;;;20.13;53.82
74242;BME280;62599;49.146;10.426;2023-07-20T08:17:14;95675.25;;;20.35;53.24
74242;BME280;62599;49.146;10.426;2023-07-20T08:19:39;95687.66;;;20.79;52.25
74242;BME280;62599;49.146;10.426;2023-07-20T08:22:07;95682.81;;;21.12;51.43
74242;BME280;62599;49.146;10.426;2023-07-20T08:24:32;95685.53;;;21.12;50.44
74242;BME280;62599;49.146;10.426;2023-07-20T08:26:58;95689.22;;;20.80;50.56
74242;BME280;62599;49.146;10.426;2023-07-20T08:29:24;95687.75;;;20.47;51.43
74242;BME280;62599;49.146;10.426;2023-07-20T08:31:49;95672.53;;;20.32;51.85
74242;BME280;62599;49.146;10.426;2023-07-20T08:34:15;95688.16;;;20.46;51.39
74242;BME280;62599;49.146;10.426;2023-07-20T08:36:40;95681.81;;;20.77;52.02
74242;BME280;62599;49.146;10.426;2023-07-20T08:39:06;95679.69;;;21.13;51.64
74242;BME280;62599;49.146;10.426;2023-07-20T08:41:34;95694.84;;;21.32;51.06
74242;BME280;62599;49.146;10.426;2023-07-20T08:44:00;95690.97;;;21.19;50.13
74242;BME280;62599;49.146;10.426;2023-07-20T08:46:26;95693.03;;;21.01;49.79
74242;BME280;62599;49.146;10.426;2023-07-20T08:48:52;95691.56;;;20.85;50.70
74242;BME280;62599;49.146;10.426;2023-07-20T08:51:19;95686.84;;;20.89;51.04
74242;BME280;62599;49.146;10.426;2023-07-20T08:53:45;95682.56;;;20.81;50.36
74242;BME280;62599;49.146;10.426;2023-07-20T08:56:11;95677.03;;;20.96;49.97
74242;BME280;62599;49.146;10.426;2023-07-20T08:58:39;95675.50;;;20.87;49.78
74242;BME280;62599;49.146;10.426;2023-07-20T09:01:18;95684.13;;;20.86;49.75
74242;BME280;62599;49.146;10.426;2023-07-20T09:03:50;95691.13;;;20.90;50.17
74242;BME280;62599;49.146;10.426;2023-07-20T09:06:15;95690.34;;;20.94;50.07
74242;BME280;62599;49.146;10.426;2023-07-20T09:08:41;95689.50;;;21.04;49.60
74242;BME280;62599;49.146;10.426;2023-07-20T09:11:07;95679.97;;;21.33;49.63
74242;BME280;62599;49.146;10.426;2023-07-20T09:13:33;95682.28;;;21.31;48.92
74242;BME280;62599;49.146;10.426;2023-07-20T09:15:59;95683.84;;;21.39;47.64
74242;BME280;62599;49.146;10.426;2023-07-20T09:18:26;95669.88;;;21.12;47.87
74242;BME280;62599;49.146;10.426;2023-07-20T09:20:53;95677.75;;;21.10;48.73
74242;BME280;62599;49.146;10.426;2023-07-20T09:23:19;95677.69;;;21.18;48.78
74242;BME280;62599;49.146;10.426;2023-07-20T09:25:44;95680.09;;;21.05;47.67
74242;BME280;62599;49.146;10.426;2023-07-20T09:28:11;95682.50;;;20.96;48.95
74242;BME280;62599;49.146;10.426;2023-07-20T09:30:37;95683.28;;;21.00;48.52
74242;BME280;62599;49.146;10.426;2023-07-20T09:33:02;95688.22;;;21.26;48.58
74242;BME280;62599;49.146;10.426;2023-07-20T09:35:29;95684.66;;;21.29;47.46
74242;BME280;62599;49.146;10.426;2023-07-20T09:38:03;95689.72;;;21.38;47.83
74242;BME280;62599;49.146;10.426;2023-07-20T09:40:29;95683.16;;;21.21;47.54
74242;BME280;62599;49.146;10.426;2023-07-20T09:42:55;95684.38;;;21.09;48.62
74242;BME280;62599;49.146;10.426;2023-07-20T09:45:35;95680.81;;;21.16;47.74
74242;BME280;62599;49.146;10.426;2023-07-20T09:48:08;95676.47;;;21.26;48.17
74242;BME280;62599;49.146;10.426;2023-07-20T09:50:39;95674.88;;;21.32;46.17
74242;BME280;62599;49.146;10.426;2023-07-20T09:53:06;95668.88;;;21.51;44.29
74242;BME280;62599;49.146;10.426;2023-07-20T09:55:32;95664.81;;;21.70;44.42
74242;BME280;62599;49.146;10.426;2023-07-20T09:58:00;95663.94;;;22.25;44.25
74242;BME280;62599;49.146;10.426;2023-07-20T10:00:25;95670.91;;;22.71;42.26
74242;BME280;62599;49.146;10.426;2023-07-20T10:02:52;95675.50;;;22.81;42.82
74242;BME280;62599;49.146;10.426;2023-07-20T10:05:19;95662.78;;;22.61;43.10
74242;BME280;62599;49.146;10.426;2023-07-20T10:07:47;95669.00;;;22.30;43.86
74242;BME280;62599;49.146;10.426;2023-07-20T10:10:17;95666.00;;;22.18;44.73
74242;BME280;62599;49.146;10.426;2023-07-20T10:12:47;95667.00;;;22.34;45.24
74242;BME280;62599;49.146;10.426;2023-07-20T10:15:23;95657.72;;;22.59;44.44
74242;BME280;62599;49.146;10.426;2023-07-20T10:20:51;95653.78;;;23.48;42.76
74242;BME280;62599;49.146;10.426;2023-07-20T10:23:19;95657.38;;;23.96;41.82
74242;BME280;62599;49.146;10.426;2023-07-20T10:25:45;95655.31;;;24.23;41.04
74242;BME280;62599;49.146;10.426;2023-07-20T10:28:12;95645.72;;;24.32;40.00
74242;BME280;62599;49.146;10.426;2023-07-20T10:30:39;95653.53;;;24.13;39.94
74242;BME280;62599;49.146;10.426;2023-07-20T10:33:05;95656.22;;;24.17;40.78
74242;BME280;62599;49.146;10.426;2023-07-20T10:35:50;95648.59;;;24.24;40.34
74242;BME280;62599;49.146;10.426;2023-07-20T10:38:16;95647.88;;;24.44;39.38
74242;BME280;62599;49.146;10.426;2023-07-20T10:40:41;95643.09;;;24.48;39.58
74242;BME280;62599;49.146;10.426;2023-07-20T10:43:08;95637.06;;;24.33;40.43
74242;BME280;62599;49.146;10.426;2023-07-20T10:45:52;95640.81;;;23.49;40.84
74242;BME280;62599;49.146;10.426;2023-07-20T10:48:22;95636.22;;;22.85;42.39
74242;BME280;62599;49.146;10.426;2023-07-20T10:51:11;95634.81;;;22.39;43.98
74242;BME280;62599;49.146;10.426;2023-07-20T10:53:37;95630.03;;;22.05;44.06
74242;BME280;62599;49.146;10.426;2023-07-20T10:56:12;95638.41;;;21.91;44.93
74242;BME280;62599;49.146;10.426;2023-07-20T10:58:38;95628.72;;;22.20;45.32
74242;BME280;62599;49.146;10.426;2023-07-20T11:01:04;95633.53;;;22.47;44.29
74242;BME280;62599;49.146;10.426;2023-07-20T11:03:36;95619.09;;;22.73;42.95
74242;BME280;62599;49.146;10.426;2023-07-20T11:09:14;95618.50;;;23.43;41.89
74242;BME280;62599;49.146;10.426;2023-07-20T11:11:41;95615.59;;;23.54;39.55
74242;BME280;62599;49.146;10.426;2023-07-20T11:14:09;95621.69;;;23.65;39.59
74242;BME280;62599;49.146;10.426;2023-07-20T11:19:03;95613.78;;;24.14;38.87
74242;BME280;62599;49.146;10.426;2023-07-20T11:21:34;95619.97;;;23.98;39.60
74242;BME280;62599;49.146;10.426;2023-07-20T11:24:03;95615.72;;;23.47;40.87
74242;BME280;62599;49.146;10.426;2023-07-20T11:26:28;95614.00;;;23.29;41.71
74242;BME280;62599;49.146;10.426;2023-07-20T11:28:54;95620.03;;;23.21;41.14
74242;BME280;62599;49.146;10.426;2023-07-20T11:31:19;95610.75;;;23.11;41.38
74242;BME280;62599;49.146;10.426;2023-07-20T11:33:45;95597.13;;;22.73;39.83
74242;BME280;62599;49.146;10.426;2023-07-20T11:36:11;95611.56;;;23.08;40.67
74242;BME280;62599;49.146;10.426;2023-07-20T11:38:39;95597.28;;;23.44;40.06
74242;BME280;62599;49.146;10.426;2023-07-20T11:41:06;95606.59;;;23.77;39.25
74242;BME280;62599;49.146;10.426;2023-07-20T11:43:31;95607.09;;;24.35;38.00
74242;BME280;62599;49.146;10.426;2023-07-20T11:45:56;95605.75;;;24.83;37.71
74242;BME280;62599;49.146;10.426;2023-07-20T11:48:22;95610.84;;;24.85;37.46
74242;BME280;62599;49.146;10.426;2023-07-20T11:50:48;95608.19;;;24.61;38.01
74242;BME280;62599;49.146;10.426;2023-07-20T11:53:14;95601.53;;;24.39;38.04
74242;BME280;62599;49.146;10.426;2023-07-20T11:55:41;95598.63;;;24.26;38.46
74242;BME280;62599;49.146;10.426;2023-07-20T11:58:07;95596.66;;;24.26;37.74
74242;BME280;62599;49.146;10.426;2023-07-20T12:00:34;95588.16;;;24.41;36.35
74242;BME280;62599;49.146;10.426;2023-07-20T12:03:00;95586.34;;;24.50;36.32
74242;BME280;62599;49.146;10.426;2023-07-20T12:05:26;95585.72;;;24.63;37.18
74242;BME280;62599;49.146;10.426;2023-07-20T12:07:51;95587.63;;;25.02;36.73
74242;BME280;62599;49.146;10.426;2023-07-20T12:10:24;95587.34;;;24.96;35.97
74242;BME280;62599;49.146;10.426;2023-07-20T12:12:50;95589.41;;;24.56;35.70
74242;BME280;62599;49.146;10.426;2023-07-20T12:17:43;95588.59;;;24.16;37.24
74242;BME280;62599;49.146;10.426;2023-07-20T12:20:09;95577.69;;;24.52;36.33
74242;BME280;62599;49.146;10.426;2023-07-20T12:22:39;95572.66;;;24.27;35.07
74242;BME280;62599;49.146;10.426;2023-07-20T12:25:06;95572.66;;;24.47;36.92
74242;BME280;62599;49.146;10.426;2023-07-20T12:27:32;95577.25;;;24.54;35.50
74242;BME280;62599;49.146;10.426;2023-07-20T12:29:58;95576.72;;;24.39;35.83
74242;BME280;62599;49.146;10.426;2023-07-20T12:32:24;95570.09;;;24.36;36.32
74242;BME280;62599;49.146;10.426;2023-07-20T12:34:49;95567.41;;;24.33;35.33
74242;BME280;62599;49.146;10.426;2023-07-20T12:37:18;95569.09;;;24.07;35.74
74242;BME280;62599;49.146;10.426;2023-07-20T12:39:43;95570.13;;;23.73;35.11
74242;BME280;62599;49.146;10.426;2023-07-20T12:42:12;95564.91;;;23.78;35.88
74242;BME280;62599;49.146;10.426;2023-07-20T12:44:39;95572.16;;;24.12;35.05
74242;BME280;62599;49.146;10.426;2023-07-20T12:47:05;95567.22;;;24.23;35.95
74242;BME280;62599;49.146;10.426;2023-07-20T12:49:31;95560.25;;;24.59;34.91
74242;BME280;62599;49.146;10.426;2023-07-20T12:51:56;95558.97;;;24.80;33.49
74242;BME280;62599;49.146;10.426;2023-07-20T12:54:21;95556.66;;;25.14;34.43
74242;BME280;62599;49.146;10.426;2023-07-20T12:56:47;95557.69;;;25.20;34.34
74242;BME280;62599;49.146;10.426;2023-07-20T12:59:12;95561.66;;;25.19;33.92
74242;BME280;62599;49.146;10.426;2023-07-20T13:01:38;95560.97;;;25.15;33.91
74242;BME280;62599;49.146;10.426;2023-07-20T13:04:03;95549.38;;;24.88;34.42
74242;BME280;62599;49.146;10.426;2023-07-20T13:06:29;95562.34;;;24.87;33.43